Karluk, AK

4:25 AM AKST on March 03, 2015 (GMT -0900)
King Salmon | Change Station
CLOSE
Current Station
Airport
Location: King Salmon,
Elevation: 46 ft
Nearby Weather Stations

Elev 46 ft 58.68 °N, 156.66 °W | Updated 31 minutes ago

Light Rain
Light Rain
37 °F
Feels Like 30 °F
N
9
Wind Variable Wind from South

Today
High -- | Low -- °F
--% Chance of Precip.
Yesterday
High -- | Low -- °F
Precip. -- in
8:06 AM 6:54 PM
Waxing Gibbous, 96% visible
Pressure 29.81 in
Visibility 10.0 miles
Clouds Mostly Cloudy 800 ft
Overcast 1800 ft
Windchill 30 °F
Dew Point 35 °F
Humidity 93%
Rainfall 0.08 in
Snow Depth Not available.
UV 0 out of 12
Pollen Not available.
Air Quality Not available.
Flu Activity Not available.
METAR PAKN 031254Z 18008KT 10SM -RA BKN008 OVC018 03/02 A2981 RMK AO2 SLP095 P0004 T00280017 $

More Conditions Fewer Conditions

Pressure 29.81 in
Visibility 10.0 miles
Clouds Mostly Cloudy 800 ft
Overcast 1800 ft
Windchill 30 °F
Dew Point 35 °F
Humidity 93%
Rainfall 0.08 in
Snow Depth Not available.
UV 0 out of 12
Pollen Not available.
Air Quality Not available.
Flu Activity Not available.
METAR PAKN 031254Z 18008KT 10SM -RA BKN008 OVC018 03/02 A2981 RMK AO2 SLP095 P0004 T00280017 $

More Conditions Fewer Conditions

10-Day Weather Forecast

Almanac

Astronomy

Mar. 03, 2015 Rise Set
Actual Time
Civil Twilight
Nautical Twilight
Astronomical Twilight
Moon
Length of Visible Light
Length of Day
Tomorrow will be .
, % of the Moon is Illuminated

Today's Extremes

State Highs State Lows

Community

WunderPhotos

Upload Photos

1,802,100 photos uploaded!

WunderBlogs® & News

Nearby

Air Quality

  Air Quality AQ Index Pollutant
Not available.

Snow Depth

Station Depth Elevation

Earthquake Activity

City Distance Mag. Time & Date
Minimum magnitude displayed is 2.5.

Coastal Water Temperatures

Place Temperature

Nearby Weather Stations